sensor_id;sensor_type;location;lat;lon;timestamp;P1;durP1;ratioP1;P2;durP2;ratioP2
16516;SDS011;8371;52.272;9.746;2023-02-25T00:00:07;2.37;;;1.80;;
16516;SDS011;8371;52.272;9.746;2023-02-25T00:02:47;5.60;;;2.50;;
16516;SDS011;8371;52.272;9.746;2023-02-25T00:05:14;6.57;;;2.43;;
16516;SDS011;8371;52.272;9.746;2023-02-25T00:07:41;3.77;;;1.80;;
16516;SDS011;8371;52.272;9.746;2023-02-25T00:10:09;2.27;;;1.40;;
16516;SDS011;8371;52.272;9.746;2023-02-25T00:12:37;6.33;;;2.20;;
16516;SDS011;8371;52.272;9.746;2023-02-25T00:15:04;2.80;;;1.43;;
16516;SDS011;8371;52.272;9.746;2023-02-25T00:17:31;4.60;;;1.57;;
16516;SDS011;8371;52.272;9.746;2023-02-25T00:19:57;3.90;;;1.67;;
16516;SDS011;8371;52.272;9.746;2023-02-25T00:22:23;3.73;;;1.30;;
16516;SDS011;8371;52.272;9.746;2023-02-25T00:24:53;1.73;;;1.63;;
16516;SDS011;8371;52.272;9.746;2023-02-25T00:27:20;5.17;;;1.80;;
16516;SDS011;8371;52.272;9.746;2023-02-25T00:29:47;4.63;;;1.77;;
16516;SDS011;8371;52.272;9.746;2023-02-25T00:32:17;5.57;;;2.00;;
16516;SDS011;8371;52.272;9.746;2023-02-25T00:34:43;7.43;;;1.87;;
16516;SDS011;8371;52.272;9.746;2023-02-25T00:37:10;2.40;;;1.83;;
16516;SDS011;8371;52.272;9.746;2023-02-25T00:39:37;4.53;;;2.00;;
16516;SDS011;8371;52.272;9.746;2023-02-25T00:42:12;6.03;;;1.50;;
16516;SDS011;8371;52.272;9.746;2023-02-25T00:44:43;5.80;;;1.60;;
16516;SDS011;8371;52.272;9.746;2023-02-25T00:47:10;4.20;;;1.90;;
16516;SDS011;8371;52.272;9.746;2023-02-25T00:49:36;3.80;;;1.87;;
16516;SDS011;8371;52.272;9.746;2023-02-25T00:52:01;4.37;;;1.70;;
16516;SDS011;8371;52.272;9.746;2023-02-25T00:54:28;2.67;;;1.40;;
16516;SDS011;8371;52.272;9.746;2023-02-25T00:56:54;3.70;;;2.13;;
16516;SDS011;8371;52.272;9.746;2023-02-25T00:59:19;3.27;;;1.80;;
16516;SDS011;8371;52.272;9.746;2023-02-25T01:01:45;3.03;;;1.60;;
16516;SDS011;8371;52.272;9.746;2023-02-25T01:04:11;3.70;;;1.53;;
16516;SDS011;8371;52.272;9.746;2023-02-25T01:06:37;3.33;;;1.53;;
16516;SDS011;8371;52.272;9.746;2023-02-25T01:09:04;4.17;;;1.70;;
16516;SDS011;8371;52.272;9.746;2023-02-25T01:11:32;5.77;;;1.53;;
16516;SDS011;8371;52.272;9.746;2023-02-25T01:14:05;4.80;;;1.80;;
16516;SDS011;8371;52.272;9.746;2023-02-25T01:16:29;2.60;;;1.73;;
16516;SDS011;8371;52.272;9.746;2023-02-25T01:18:57;3.90;;;1.40;;
16516;SDS011;8371;52.272;9.746;2023-02-25T01:21:26;7.07;;;2.10;;
16516;SDS011;8371;52.272;9.746;2023-02-25T01:23:57;4.47;;;1.80;;
16516;SDS011;8371;52.272;9.746;2023-02-25T01:26:26;5.87;;;1.97;;
16516;SDS011;8371;52.272;9.746;2023-02-25T01:28:53;3.60;;;2.10;;
16516;SDS011;8371;52.272;9.746;2023-02-25T01:31:20;4.43;;;2.07;;
16516;SDS011;8371;52.272;9.746;2023-02-25T01:33:48;7.93;;;1.73;;
16516;SDS011;8371;52.272;9.746;2023-02-25T01:36:14;3.07;;;1.67;;
16516;SDS011;8371;52.272;9.746;2023-02-25T01:38:39;5.93;;;2.07;;
16516;SDS011;8371;52.272;9.746;2023-02-25T01:41:05;5.80;;;1.57;;
16516;SDS011;8371;52.272;9.746;2023-02-25T01:43:31;2.10;;;1.47;;
16516;SDS011;8371;52.272;9.746;2023-02-25T01:45:56;5.23;;;1.97;;
16516;SDS011;8371;52.272;9.746;2023-02-25T01:48:30;3.03;;;1.70;;
16516;SDS011;8371;52.272;9.746;2023-02-25T01:50:56;6.10;;;1.73;;
16516;SDS011;8371;52.272;9.746;2023-02-25T01:53:26;7.57;;;1.70;;
16516;SDS011;8371;52.272;9.746;2023-02-25T01:55:53;8.77;;;2.10;;
16516;SDS011;8371;52.272;9.746;2023-02-25T01:58:21;4.27;;;1.77;;
16516;SDS011;8371;52.272;9.746;2023-02-25T02:00:47;5.53;;;1.60;;
16516;SDS011;8371;52.272;9.746;2023-02-25T02:03:13;4.70;;;1.90;;
16516;SDS011;8371;52.272;9.746;2023-02-25T02:05:50;2.73;;;1.40;;
16516;SDS011;8371;52.272;9.746;2023-02-25T02:08:15;5.70;;;1.77;;
16516;SDS011;8371;52.272;9.746;2023-02-25T02:10:40;3.07;;;1.57;;
16516;SDS011;8371;52.272;9.746;2023-02-25T02:13:06;6.97;;;1.37;;
16516;SDS011;8371;52.272;9.746;2023-02-25T02:15:33;2.27;;;1.63;;
16516;SDS011;8371;52.272;9.746;2023-02-25T02:18:01;3.03;;;1.37;;
16516;SDS011;8371;52.272;9.746;2023-02-25T02:20:48;2.33;;;1.60;;
16516;SDS011;8371;52.272;9.746;2023-02-25T02:28:32;2.40;;;1.40;;
16516;SDS011;8371;52.272;9.746;2023-02-25T02:36:50;2.67;;;1.37;;
16516;SDS011;8371;52.272;9.746;2023-02-25T02:39:23;3.27;;;1.73;;
16516;SDS011;8371;52.272;9.746;2023-02-25T02:44:44;6.83;;;1.77;;
16516;SDS011;8371;52.272;9.746;2023-02-25T02:47:13;2.00;;;1.57;;
16516;SDS011;8371;52.272;9.746;2023-02-25T02:49:48;5.27;;;1.87;;
16516;SDS011;8371;52.272;9.746;2023-02-25T02:52:17;4.23;;;1.33;;
16516;SDS011;8371;52.272;9.746;2023-02-25T02:54:48;4.73;;;1.70;;
16516;SDS011;8371;52.272;9.746;2023-02-25T02:57:21;3.33;;;1.33;;
16516;SDS011;8371;52.272;9.746;2023-02-25T02:59:50;3.00;;;1.00;;
16516;SDS011;8371;52.272;9.746;2023-02-25T03:02:22;2.23;;;1.70;;
16516;SDS011;8371;52.272;9.746;2023-02-25T03:04:52;1.27;;;0.97;;
16516;SDS011;8371;52.272;9.746;2023-02-25T03:07:20;3.13;;;1.10;;
16516;SDS011;8371;52.272;9.746;2023-02-25T03:09:57;1.87;;;1.13;;
16516;SDS011;8371;52.272;9.746;2023-02-25T03:12:25;0.90;;;0.90;;
16516;SDS011;8371;52.272;9.746;2023-02-25T03:14:52;2.73;;;1.10;;
16516;SDS011;8371;52.272;9.746;2023-02-25T03:17:19;2.93;;;1.10;;
16516;SDS011;8371;52.272;9.746;2023-02-25T03:22:27;4.50;;;1.07;;
16516;SDS011;8371;52.272;9.746;2023-02-25T03:25:07;3.30;;;1.10;;
16516;SDS011;8371;52.272;9.746;2023-02-25T03:27:37;1.70;;;1.17;;
16516;SDS011;8371;52.272;9.746;2023-02-25T03:32:38;1.00;;;0.90;;
16516;SDS011;8371;52.272;9.746;2023-02-25T03:35:06;1.87;;;1.00;;
16516;SDS011;8371;52.272;9.746;2023-02-25T03:37:36;2.83;;;0.90;;
16516;SDS011;8371;52.272;9.746;2023-02-25T03:40:04;2.07;;;1.10;;
16516;SDS011;8371;52.272;9.746;2023-02-25T03:42:37;3.50;;;0.90;;
16516;SDS011;8371;52.272;9.746;2023-02-25T03:45:06;4.03;;;1.40;;
16516;SDS011;8371;52.272;9.746;2023-02-25T03:47:34;3.50;;;1.37;;
16516;SDS011;8371;52.272;9.746;2023-02-25T03:52:34;2.23;;;0.80;;
16516;SDS011;8371;52.272;9.746;2023-02-25T03:55:00;3.77;;;1.33;;
16516;SDS011;8371;52.272;9.746;2023-02-25T03:57:34;2.73;;;1.10;;
16516;SDS011;8371;52.272;9.746;2023-02-25T04:00:03;1.63;;;1.20;;
16516;SDS011;8371;52.272;9.746;2023-02-25T04:02:33;3.63;;;1.40;;
16516;SDS011;8371;52.272;9.746;2023-02-25T04:04:58;1.20;;;0.80;;
16516;SDS011;8371;52.272;9.746;2023-02-25T04:07:24;3.40;;;1.63;;
16516;SDS011;8371;52.272;9.746;2023-02-25T04:09:50;1.57;;;0.67;;
16516;SDS011;8371;52.272;9.746;2023-02-25T04:12:15;1.67;;;0.90;;
16516;SDS011;8371;52.272;9.746;2023-02-25T04:14:41;4.00;;;1.33;;
16516;SDS011;8371;52.272;9.746;2023-02-25T04:17:07;1.57;;;1.00;;
16516;SDS011;8371;52.272;9.746;2023-02-25T04:19:32;1.30;;;1.17;;
16516;SDS011;8371;52.272;9.746;2023-02-25T04:21:58;1.40;;;1.30;;
16516;SDS011;8371;52.272;9.746;2023-02-25T04:24:26;1.07;;;0.97;;
16516;SDS011;8371;52.272;9.746;2023-02-25T04:26:52;1.17;;;1.07;;
16516;SDS011;8371;52.272;9.746;2023-02-25T04:29:19;1.97;;;1.00;;
16516;SDS011;8371;52.272;9.746;2023-02-25T04:31:45;1.47;;;0.90;;
16516;SDS011;8371;52.272;9.746;2023-02-25T04:34:11;2.07;;;1.30;;
16516;SDS011;8371;52.272;9.746;2023-02-25T04:36:36;2.53;;;1.03;;
16516;SDS011;8371;52.272;9.746;2023-02-25T04:39:04;1.73;;;1.00;;
16516;SDS011;8371;52.272;9.746;2023-02-25T04:41:31;3.17;;;0.87;;
16516;SDS011;8371;52.272;9.746;2023-02-25T04:43:58;2.17;;;1.20;;
16516;SDS011;8371;52.272;9.746;2023-02-25T04:46:25;1.70;;;0.60;;
16516;SDS011;8371;52.272;9.746;2023-02-25T04:48:50;2.50;;;0.93;;
16516;SDS011;8371;52.272;9.746;2023-02-25T04:51:16;1.60;;;1.00;;
16516;SDS011;8371;52.272;9.746;2023-02-25T04:53:42;1.90;;;1.00;;
16516;SDS011;8371;52.272;9.746;2023-02-25T04:56:08;2.53;;;1.30;;
16516;SDS011;8371;52.272;9.746;2023-02-25T04:58:35;4.70;;;1.40;;
16516;SDS011;8371;52.272;9.746;2023-02-25T05:01:03;1.03;;;0.97;;
16516;SDS011;8371;52.272;9.746;2023-02-25T05:03:31;2.60;;;1.10;;
16516;SDS011;8371;52.272;9.746;2023-02-25T05:05:57;2.43;;;1.00;;
16516;SDS011;8371;52.272;9.746;2023-02-25T05:08:23;0.67;;;0.67;;
16516;SDS011;8371;52.272;9.746;2023-02-25T05:10:49;3.60;;;1.00;;
16516;SDS011;8371;52.272;9.746;2023-02-25T05:13:16;1.53;;;0.93;;
16516;SDS011;8371;52.272;9.746;2023-02-25T05:15:43;1.60;;;0.87;;
16516;SDS011;8371;52.272;9.746;2023-02-25T05:18:08;0.87;;;0.53;;
16516;SDS011;8371;52.272;9.746;2023-02-25T05:20:39;3.07;;;0.70;;
16516;SDS011;8371;52.272;9.746;2023-02-25T05:23:06;0.70;;;0.70;;
16516;SDS011;8371;52.272;9.746;2023-02-25T05:25:32;0.90;;;0.90;;
16516;SDS011;8371;52.272;9.746;2023-02-25T05:27:58;1.47;;;1.37;;
16516;SDS011;8371;52.272;9.746;2023-02-25T05:30:24;0.93;;;0.93;;
16516;SDS011;8371;52.272;9.746;2023-02-25T05:32:50;2.03;;;1.03;;
16516;SDS011;8371;52.272;9.746;2023-02-25T05:35:16;1.97;;;1.20;;
16516;SDS011;8371;52.272;9.746;2023-02-25T05:37:41;3.77;;;1.20;;
16516;SDS011;8371;52.272;9.746;2023-02-25T05:40:07;3.80;;;1.03;;
16516;SDS011;8371;52.272;9.746;2023-02-25T05:42:34;1.83;;;1.00;;
16516;SDS011;8371;52.272;9.746;2023-02-25T05:45:01;2.77;;;0.90;;
16516;SDS011;8371;52.272;9.746;2023-02-25T05:47:27;3.50;;;1.10;;
16516;SDS011;8371;52.272;9.746;2023-02-25T05:49:53;2.20;;;1.00;;
16516;SDS011;8371;52.272;9.746;2023-02-25T05:52:19;1.23;;;0.90;;
16516;SDS011;8371;52.272;9.746;2023-02-25T05:54:44;1.70;;;0.90;;
16516;SDS011;8371;52.272;9.746;2023-02-25T05:57:10;1.57;;;1.07;;
16516;SDS011;8371;52.272;9.746;2023-02-25T05:59:36;1.13;;;0.90;;
16516;SDS011;8371;52.272;9.746;2023-02-25T06:02:02;2.87;;;1.23;;
16516;SDS011;8371;52.272;9.746;2023-02-25T06:04:28;1.10;;;0.70;;
16516;SDS011;8371;52.272;9.746;2023-02-25T06:06:53;3.43;;;1.20;;
16516;SDS011;8371;52.272;9.746;2023-02-25T06:09:19;2.97;;;1.27;;
16516;SDS011;8371;52.272;9.746;2023-02-25T06:11:46;1.00;;;0.73;;
16516;SDS011;8371;52.272;9.746;2023-02-25T06:14:13;1.87;;;1.20;;
16516;SDS011;8371;52.272;9.746;2023-02-25T06:16:40;0.73;;;0.63;;
16516;SDS011;8371;52.272;9.746;2023-02-25T06:19:06;2.73;;;1.40;;
16516;SDS011;8371;52.272;9.746;2023-02-25T06:21:33;1.33;;;0.97;;
16516;SDS011;8371;52.272;9.746;2023-02-25T06:24:00;1.53;;;1.00;;
16516;SDS011;8371;52.272;9.746;2023-02-25T06:26:27;0.60;;;0.60;;
16516;SDS011;8371;52.272;9.746;2023-02-25T06:28:53;0.60;;;0.60;;
16516;SDS011;8371;52.272;9.746;2023-02-25T06:31:21;0.60;;;0.50;;
16516;SDS011;8371;52.272;9.746;2023-02-25T06:33:47;0.90;;;0.50;;
16516;SDS011;8371;52.272;9.746;2023-02-25T06:36:15;1.60;;;0.57;;
16516;SDS011;8371;52.272;9.746;2023-02-25T06:38:44;0.40;;;0.40;;
16516;SDS011;8371;52.272;9.746;2023-02-25T06:41:14;0.87;;;0.60;;
16516;SDS011;8371;52.272;9.746;2023-02-25T06:43:42;1.30;;;0.93;;
16516;SDS011;8371;52.272;9.746;2023-02-25T06:46:09;1.33;;;0.60;;
16516;SDS011;8371;52.272;9.746;2023-02-25T06:48:37;0.60;;;0.40;;
16516;SDS011;8371;52.272;9.746;2023-02-25T06:51:03;1.47;;;1.10;;
16516;SDS011;8371;52.272;9.746;2023-02-25T06:53:32;1.93;;;0.80;;
16516;SDS011;8371;52.272;9.746;2023-02-25T06:55:57;0.83;;;0.50;;
16516;SDS011;8371;52.272;9.746;2023-02-25T06:58:23;0.50;;;0.47;;
16516;SDS011;8371;52.272;9.746;2023-02-25T07:00:49;0.50;;;0.50;;
16516;SDS011;8371;52.272;9.746;2023-02-25T07:03:14;1.40;;;0.73;;
16516;SDS011;8371;52.272;9.746;2023-02-25T07:05:41;0.70;;;0.40;;
16516;SDS011;8371;52.272;9.746;2023-02-25T07:08:07;0.60;;;0.40;;
16516;SDS011;8371;52.272;9.746;2023-02-25T07:10:33;0.43;;;0.43;;
16516;SDS011;8371;52.272;9.746;2023-02-25T07:12:59;0.60;;;0.60;;
16516;SDS011;8371;52.272;9.746;2023-02-25T07:15:25;1.13;;;0.80;;
16516;SDS011;8371;52.272;9.746;2023-02-25T07:17:50;0.40;;;0.37;;
16516;SDS011;8371;52.272;9.746;2023-02-25T07:20:16;0.77;;;0.70;;
16516;SDS011;8371;52.272;9.746;2023-02-25T07:22:43;0.50;;;0.50;;
16516;SDS011;8371;52.272;9.746;2023-02-25T07:25:09;0.60;;;0.50;;
16516;SDS011;8371;52.272;9.746;2023-02-25T07:27:38;5.73;;;0.90;;
16516;SDS011;8371;52.272;9.746;2023-02-25T07:30:07;0.10;;;0.10;;
16516;SDS011;8371;52.272;9.746;2023-02-25T07:32:33;0.40;;;0.30;;
16516;SDS011;8371;52.272;9.746;2023-02-25T07:34:59;0.30;;;0.30;;
16516;SDS011;8371;52.272;9.746;2023-02-25T07:37:24;0.50;;;0.50;;
16516;SDS011;8371;52.272;9.746;2023-02-25T07:39:50;0.67;;;0.60;;
16516;SDS011;8371;52.272;9.746;2023-02-25T07:42:16;1.63;;;0.30;;
16516;SDS011;8371;52.272;9.746;2023-02-25T07:44:42;0.53;;;0.30;;
16516;SDS011;8371;52.272;9.746;2023-02-25T07:47:07;0.50;;;0.40;;
16516;SDS011;8371;52.272;9.746;2023-02-25T07:49:33;2.00;;;0.60;;
16516;SDS011;8371;52.272;9.746;2023-02-25T07:51:59;0.40;;;0.40;;
16516;SDS011;8371;52.272;9.746;2023-02-25T07:54:25;0.60;;;0.43;;
16516;SDS011;8371;52.272;9.746;2023-02-25T07:56:51;0.43;;;0.43;;
16516;SDS011;8371;52.272;9.746;2023-02-25T07:59:17;0.27;;;0.27;;
16516;SDS011;8371;52.272;9.746;2023-02-25T08:01:43;0.93;;;0.40;;
16516;SDS011;8371;52.272;9.746;2023-02-25T08:04:09;0.50;;;0.30;;
16516;SDS011;8371;52.272;9.746;2023-02-25T08:06:36;0.27;;;0.27;;
16516;SDS011;8371;52.272;9.746;2023-02-25T08:09:04;0.30;;;0.20;;
16516;SDS011;8371;52.272;9.746;2023-02-25T08:11:31;1.87;;;0.30;;
16516;SDS011;8371;52.272;9.746;2023-02-25T08:14:01;0.60;;;0.60;;
16516;SDS011;8371;52.272;9.746;2023-02-25T08:16:27;0.50;;;0.50;;
16516;SDS011;8371;52.272;9.746;2023-02-25T08:18:53;0.50;;;0.50;;
16516;SDS011;8371;52.272;9.746;2023-02-25T08:21:19;0.57;;;0.40;;
16516;SDS011;8371;52.272;9.746;2023-02-25T08:23:47;0.47;;;0.43;;
16516;SDS011;8371;52.272;9.746;2023-02-25T08:26:16;0.47;;;0.47;;
16516;SDS011;8371;52.272;9.746;2023-02-25T08:28:43;0.20;;;0.20;;
16516;SDS011;8371;52.272;9.746;2023-02-25T08:31:10;0.83;;;0.40;;
16516;SDS011;8371;52.272;9.746;2023-02-25T08:33:37;0.53;;;0.53;;
16516;SDS011;8371;52.272;9.746;2023-02-25T08:36:05;0.73;;;0.70;;
16516;SDS011;8371;52.272;9.746;2023-02-25T08:38:36;0.80;;;0.70;;
16516;SDS011;8371;52.272;9.746;2023-02-25T08:41:02;0.47;;;0.47;;
16516;SDS011;8371;52.272;9.746;2023-02-25T08:43:29;0.50;;;0.50;;
16516;SDS011;8371;52.272;9.746;2023-02-25T08:45:54;0.47;;;0.30;;
16516;SDS011;8371;52.272;9.746;2023-02-25T08:48:21;1.60;;;0.57;;
16516;SDS011;8371;52.272;9.746;2023-02-25T08:50:47;0.37;;;0.37;;
16516;SDS011;8371;52.272;9.746;2023-02-25T08:53:12;0.20;;;0.20;;
16516;SDS011;8371;52.272;9.746;2023-02-25T08:55:38;0.97;;;0.47;;
16516;SDS011;8371;52.272;9.746;2023-02-25T08:58:05;1.47;;;0.40;;
16516;SDS011;8371;52.272;9.746;2023-02-25T09:00:31;0.40;;;0.40;;
16516;SDS011;8371;52.272;9.746;2023-02-25T09:02:57;0.50;;;0.50;;
16516;SDS011;8371;52.272;9.746;2023-02-25T09:05:23;0.53;;;0.40;;
16516;SDS011;8371;52.272;9.746;2023-02-25T09:07:50;0.47;;;0.40;;
16516;SDS011;8371;52.272;9.746;2023-02-25T09:10:16;0.60;;;0.57;;
16516;SDS011;8371;52.272;9.746;2023-02-25T09:12:43;0.47;;;0.47;;
16516;SDS011;8371;52.272;9.746;2023-02-25T09:15:10;0.50;;;0.50;;
16516;SDS011;8371;52.272;9.746;2023-02-25T09:17:37;0.50;;;0.50;;
16516;SDS011;8371;52.272;9.746;2023-02-25T09:20:03;0.30;;;0.27;;
16516;SDS011;8371;52.272;9.746;2023-02-25T09:22:34;0.50;;;0.50;;
16516;SDS011;8371;52.272;9.746;2023-02-25T09:25:00;0.40;;;0.40;;
16516;SDS011;8371;52.272;9.746;2023-02-25T09:27:26;0.47;;;0.47;;
16516;SDS011;8371;52.272;9.746;2023-02-25T09:29:52;0.50;;;0.37;;
16516;SDS011;8371;52.272;9.746;2023-02-25T09:32:19;0.37;;;0.37;;
16516;SDS011;8371;52.272;9.746;2023-02-25T09:34:45;0.60;;;0.60;;
16516;SDS011;8371;52.272;9.746;2023-02-25T09:37:13;1.57;;;0.67;;
16516;SDS011;8371;52.272;9.746;2023-02-25T09:39:40;0.50;;;0.40;;
16516;SDS011;8371;52.272;9.746;2023-02-25T09:42:10;0.80;;;0.63;;
16516;SDS011;8371;52.272;9.746;2023-02-25T09:44:46;1.23;;;0.37;;
16516;SDS011;8371;52.272;9.746;2023-02-25T09:47:17;0.30;;;0.30;;
16516;SDS011;8371;52.272;9.746;2023-02-25T09:49:50;0.40;;;0.40;;
16516;SDS011;8371;52.272;9.746;2023-02-25T09:52:40;1.40;;;0.80;;
16516;SDS011;8371;52.272;9.746;2023-02-25T09:57:58;0.30;;;0.30;;
16516;SDS011;8371;52.272;9.746;2023-02-25T10:00:27;0.43;;;0.43;;
16516;SDS011;8371;52.272;9.746;2023-02-25T10:05:41;0.43;;;0.43;;
16516;SDS011;8371;52.272;9.746;2023-02-25T10:08:23;0.40;;;0.40;;
16516;SDS011;8371;52.272;9.746;2023-02-25T10:18:43;0.53;;;0.53;;
16516;SDS011;8371;52.272;9.746;2023-02-25T10:21:14;1.10;;;0.30;;
16516;SDS011;8371;52.272;9.746;2023-02-25T10:23:48;0.40;;;0.40;;
16516;SDS011;8371;52.272;9.746;2023-02-25T10:28:49;0.30;;;0.30;;
16516;SDS011;8371;52.272;9.746;2023-02-25T10:31:15;0.40;;;0.40;;
16516;SDS011;8371;52.272;9.746;2023-02-25T10:33:44;2.70;;;0.43;;
16516;SDS011;8371;52.272;9.746;2023-02-25T10:36:13;1.10;;;0.60;;
16516;SDS011;8371;52.272;9.746;2023-02-25T10:38:42;0.37;;;0.37;;
16516;SDS011;8371;52.272;9.746;2023-02-25T10:41:11;0.40;;;0.40;;
16516;SDS011;8371;52.272;9.746;2023-02-25T10:43:37;2.60;;;0.57;;
16516;SDS011;8371;52.272;9.746;2023-02-25T10:46:06;0.30;;;0.30;;
16516;SDS011;8371;52.272;9.746;2023-02-25T10:48:34;0.43;;;0.43;;
16516;SDS011;8371;52.272;9.746;2023-02-25T10:51:04;0.40;;;0.40;;
16516;SDS011;8371;52.272;9.746;2023-02-25T10:53:31;0.20;;;0.20;;
16516;SDS011;8371;52.272;9.746;2023-02-25T10:55:57;0.40;;;0.40;;
16516;SDS011;8371;52.272;9.746;2023-02-25T11:01:11;0.50;;;0.50;;
16516;SDS011;8371;52.272;9.746;2023-02-25T11:03:40;0.37;;;0.30;;
16516;SDS011;8371;52.272;9.746;2023-02-25T11:06:12;0.40;;;0.40;;
16516;SDS011;8371;52.272;9.746;2023-02-25T11:08:37;1.33;;;0.43;;
16516;SDS011;8371;52.272;9.746;2023-02-25T11:11:04;0.30;;;0.30;;
16516;SDS011;8371;52.272;9.746;2023-02-25T11:13:34;0.70;;;0.40;;
16516;SDS011;8371;52.272;9.746;2023-02-25T11:16:05;0.50;;;0.50;;
16516;SDS011;8371;52.272;9.746;2023-02-25T11:18:32;0.20;;;0.20;;
16516;SDS011;8371;52.272;9.746;2023-02-25T11:21:00;0.50;;;0.33;;
16516;SDS011;8371;52.272;9.746;2023-02-25T11:23:32;0.70;;;0.70;;
16516;SDS011;8371;52.272;9.746;2023-02-25T11:26:02;0.40;;;0.40;;
16516;SDS011;8371;52.272;9.746;2023-02-25T11:28:38;0.43;;;0.33;;
16516;SDS011;8371;52.272;9.746;2023-02-25T11:33:54;0.40;;;0.40;;
16516;SDS011;8371;52.272;9.746;2023-02-25T11:36:24;3.07;;;0.70;;
16516;SDS011;8371;52.272;9.746;2023-02-25T11:41:47;1.40;;;0.90;;
16516;SDS011;8371;52.272;9.746;2023-02-25T11:44:31;1.70;;;0.70;;
16516;SDS011;8371;52.272;9.746;2023-02-25T11:47:21;0.77;;;0.77;;
16516;SDS011;8371;52.272;9.746;2023-02-25T11:49:56;0.93;;;0.57;;
16516;SDS011;8371;52.272;9.746;2023-02-25T11:52:39;0.80;;;0.63;;
16516;SDS011;8371;52.272;9.746;2023-02-25T11:57:44;0.77;;;0.77;;
16516;SDS011;8371;52.272;9.746;2023-02-25T12:00:23;0.87;;;0.70;;
16516;SDS011;8371;52.272;9.746;2023-02-25T12:05:51;0.87;;;0.77;;
16516;SDS011;8371;52.272;9.746;2023-02-25T12:11:14;0.70;;;0.70;;
16516;SDS011;8371;52.272;9.746;2023-02-25T12:19:46;1.00;;;0.60;;
16516;SDS011;8371;52.272;9.746;2023-02-25T12:22:33;1.13;;;1.13;;
16516;SDS011;8371;52.272;9.746;2023-02-25T12:25:07;0.60;;;0.60;;
16516;SDS011;8371;52.272;9.746;2023-02-25T12:33:15;0.40;;;0.40;;
16516;SDS011;8371;52.272;9.746;2023-02-25T12:36:04;0.50;;;0.50;;
16516;SDS011;8371;52.272;9.746;2023-02-25T12:41:31;0.70;;;0.53;;
16516;SDS011;8371;52.272;9.746;2023-02-25T12:49:15;0.40;;;0.40;;
16516;SDS011;8371;52.272;9.746;2023-02-25T12:51:48;0.27;;;0.27;;
16516;SDS011;8371;52.272;9.746;2023-02-25T12:57:19;0.40;;;0.40;;
16516;SDS011;8371;52.272;9.746;2023-02-25T13:00:09;1.53;;;1.03;;
16516;SDS011;8371;52.272;9.746;2023-02-25T13:02:42;0.77;;;0.60;;
16516;SDS011;8371;52.272;9.746;2023-02-25T13:14:07;2.50;;;0.57;;
16516;SDS011;8371;52.272;9.746;2023-02-25T13:19:18;0.57;;;0.50;;
16516;SDS011;8371;52.272;9.746;2023-02-25T13:24:45;0.47;;;0.47;;
16516;SDS011;8371;52.272;9.746;2023-02-25T13:27:34;0.60;;;0.50;;
16516;SDS011;8371;52.272;9.746;2023-02-25T13:33:38;0.33;;;0.27;;
16516;SDS011;8371;52.272;9.746;2023-02-25T13:36:14;0.47;;;0.47;;
16516;SDS011;8371;52.272;9.746;2023-02-25T13:44:14;0.40;;;0.40;;
16516;SDS011;8371;52.272;9.746;2023-02-25T13:47:09;1.20;;;0.70;;
16516;SDS011;8371;52.272;9.746;2023-02-25T13:49:48;2.20;;;0.50;;
16516;SDS011;8371;52.272;9.746;2023-02-25T13:52:24;0.60;;;0.53;;
16516;SDS011;8371;52.272;9.746;2023-02-25T13:55:07;1.67;;;0.70;;
16516;SDS011;8371;52.272;9.746;2023-02-25T13:57:56;0.60;;;0.60;;
16516;SDS011;8371;52.272;9.746;2023-02-25T14:03:18;0.60;;;0.60;;
16516;SDS011;8371;52.272;9.746;2023-02-25T14:06:02;0.50;;;0.50;;
16516;SDS011;8371;52.272;9.746;2023-02-25T14:14:12;0.60;;;0.53;;
16516;SDS011;8371;52.272;9.746;2023-02-25T14:19:21;1.57;;;0.60;;
16516;SDS011;8371;52.272;9.746;2023-02-25T14:36:10;0.50;;;0.50;;
16516;SDS011;8371;52.272;9.746;2023-02-25T14:38:59;1.10;;;0.53;;
16516;SDS011;8371;52.272;9.746;2023-02-25T14:41:46;0.47;;;0.43;;
16516;SDS011;8371;52.272;9.746;2023-02-25T14:44:19;1.00;;;0.50;;
16516;SDS011;8371;52.272;9.746;2023-02-25T14:46:47;0.60;;;0.60;;
16516;SDS011;8371;52.272;9.746;2023-02-25T14:49:20;1.13;;;0.60;;
16516;SDS011;8371;52.272;9.746;2023-02-25T14:51:59;0.50;;;0.50;;
16516;SDS011;8371;52.272;9.746;2023-02-25T14:57:35;1.10;;;0.70;;
16516;SDS011;8371;52.272;9.746;2023-02-25T15:00:03;0.70;;;0.50;;
16516;SDS011;8371;52.272;9.746;2023-02-25T15:05:30;0.67;;;0.67;;
16516;SDS011;8371;52.272;9.746;2023-02-25T15:08:23;0.67;;;0.67;;
16516;SDS011;8371;52.272;9.746;2023-02-25T15:13:37;0.40;;;0.40;;
16516;SDS011;8371;52.272;9.746;2023-02-25T15:16:28;1.57;;;0.70;;
16516;SDS011;8371;52.272;9.746;2023-02-25T15:24:45;1.47;;;0.70;;
16516;SDS011;8371;52.272;9.746;2023-02-25T15:27:39;0.53;;;0.53;;
16516;SDS011;8371;52.272;9.746;2023-02-25T15:30:03;1.60;;;0.80;;
16516;SDS011;8371;52.272;9.746;2023-02-25T15:36:02;0.83;;;0.60;;
16516;SDS011;8371;52.272;9.746;2023-02-25T15:45:49;0.60;;;0.60;;
16516;SDS011;8371;52.272;9.746;2023-02-25T15:53:35;1.43;;;1.20;;
16516;SDS011;8371;52.272;9.746;2023-02-25T15:55:52;0.67;;;0.67;;
16516;SDS011;8371;52.272;9.746;2023-02-25T16:01:20;1.27;;;0.90;;
16516;SDS011;8371;52.272;9.746;2023-02-25T16:06:02;0.70;;;0.70;;
16516;SDS011;8371;52.272;9.746;2023-02-25T16:08:49;1.43;;;0.83;;
16516;SDS011;8371;52.272;9.746;2023-02-25T16:11:29;2.33;;;1.10;;
16516;SDS011;8371;52.272;9.746;2023-02-25T16:16:55;0.50;;;0.50;;
16516;SDS011;8371;52.272;9.746;2023-02-25T16:19:24;0.40;;;0.40;;
16516;SDS011;8371;52.272;9.746;2023-02-25T16:21:59;1.27;;;0.80;;
16516;SDS011;8371;52.272;9.746;2023-02-25T16:24:28;2.33;;;0.70;;
16516;SDS011;8371;52.272;9.746;2023-02-25T16:32:44;1.40;;;0.90;;
16516;SDS011;8371;52.272;9.746;2023-02-25T16:35:27;0.63;;;0.63;;
16516;SDS011;8371;52.272;9.746;2023-02-25T16:38:10;0.77;;;0.77;;
16516;SDS011;8371;52.272;9.746;2023-02-25T16:40:43;0.70;;;0.70;;
16516;SDS011;8371;52.272;9.746;2023-02-25T16:43:11;2.10;;;1.10;;
16516;SDS011;8371;52.272;9.746;2023-02-25T16:45:43;0.57;;;0.57;;
16516;SDS011;8371;52.272;9.746;2023-02-25T16:48:16;0.80;;;0.63;;
16516;SDS011;8371;52.272;9.746;2023-02-25T16:50:45;0.63;;;0.63;;
16516;SDS011;8371;52.272;9.746;2023-02-25T16:53:20;0.80;;;0.80;;
16516;SDS011;8371;52.272;9.746;2023-02-25T16:55:45;1.23;;;0.70;;
16516;SDS011;8371;52.272;9.746;2023-02-25T17:00:55;0.40;;;0.40;;
16516;SDS011;8371;52.272;9.746;2023-02-25T17:03:24;1.00;;;0.70;;
16516;SDS011;8371;52.272;9.746;2023-02-25T17:08:35;1.23;;;0.60;;
16516;SDS011;8371;52.272;9.746;2023-02-25T17:11:00;1.03;;;0.70;;
16516;SDS011;8371;52.272;9.746;2023-02-25T17:13:31;0.87;;;0.87;;
16516;SDS011;8371;52.272;9.746;2023-02-25T17:15:58;1.50;;;0.80;;
16516;SDS011;8371;52.272;9.746;2023-02-25T17:21:05;1.13;;;0.80;;
16516;SDS011;8371;52.272;9.746;2023-02-25T17:23:36;0.70;;;0.70;;
16516;SDS011;8371;52.272;9.746;2023-02-25T17:26:06;1.73;;;0.63;;
16516;SDS011;8371;52.272;9.746;2023-02-25T17:28:34;0.50;;;0.50;;
16516;SDS011;8371;52.272;9.746;2023-02-25T17:31:04;0.97;;;0.97;;
16516;SDS011;8371;52.272;9.746;2023-02-25T17:33:32;0.97;;;0.97;;
16516;SDS011;8371;52.272;9.746;2023-02-25T17:36:05;0.77;;;0.50;;
16516;SDS011;8371;52.272;9.746;2023-02-25T17:38:31;0.63;;;0.63;;
16516;SDS011;8371;52.272;9.746;2023-02-25T17:40:57;1.27;;;0.70;;
16516;SDS011;8371;52.272;9.746;2023-02-25T17:43:25;1.20;;;1.07;;
16516;SDS011;8371;52.272;9.746;2023-02-25T17:45:59;1.53;;;1.00;;
16516;SDS011;8371;52.272;9.746;2023-02-25T17:48:28;0.83;;;0.77;;
16516;SDS011;8371;52.272;9.746;2023-02-25T17:51:03;0.73;;;0.73;;
16516;SDS011;8371;52.272;9.746;2023-02-25T17:56:15;0.57;;;0.57;;
16516;SDS011;8371;52.272;9.746;2023-02-25T17:58:43;0.70;;;0.70;;
16516;SDS011;8371;52.272;9.746;2023-02-25T18:01:26;1.03;;;0.60;;
16516;SDS011;8371;52.272;9.746;2023-02-25T18:03:57;4.07;;;0.80;;
16516;SDS011;8371;52.272;9.746;2023-02-25T18:06:32;0.70;;;0.70;;
16516;SDS011;8371;52.272;9.746;2023-02-25T18:12:01;1.43;;;0.87;;
16516;SDS011;8371;52.272;9.746;2023-02-25T18:16:59;0.90;;;0.70;;
16516;SDS011;8371;52.272;9.746;2023-02-25T18:19:35;2.03;;;0.87;;